Clipper Grand — C6YJ5 — position and weather

sailwx.info

Track history (hours):
 
Tides and Currents Weather Stations Pressure Air Temp Water Temp Dewpoint Dewpoint Depression Visibility Wind Speed Wind Dir Waves Ship Positions

Clipper Grand

Last reported at 2014-Aug-28 09:30 UTC. Time now 2014-Sep-18 23:48 UTC.
Position N 26°41' W 079°27'.
Warning: this ship's position is 21 days out of date.

Length 120 m; draft 7.2 m.

Type: Cargo ship. MMSI: 311033700.

Date/timePositionNaut miles runAvg speedWind from/ knotsBaromVisibWave heightAir tempDewpointWater temp
2014-Aug-28 09:30N 26°41' W 079°27'2613.4
2014-Aug-28 07:33N 26°15' W 079°28'1313.1
2014-Aug-28 06:33N 26°02' W 079°30'1413.1
2014-Aug-28 05:31N 25°49' W 079°32'  
2014-Aug-25 04:07N 29°19' W 094°38'711.5
2014-Aug-25 03:30N 29°21' W 094°46'1212.6
2014-Aug-25 02:33N 29°31' W 094°53'1211.6
2014-Aug-25 01:33N 29°41' W 094°59'7 6.8
2014-Aug-25 00:33N 29°46' W 095°05'2 2.1
2014-Aug-24 23:33N 29°44' W 095°07'0 0.0
2014-Aug-24 22:33N 29°44' W 095°07'0 0.0
2014-Aug-24 21:33N 29°44' W 095°07'0 0.0
2014-Aug-24 20:33N 29°44' W 095°07'0 0.0
2014-Aug-24 19:33N 29°44' W 095°07'0 0.0
2014-Aug-24 18:33N 29°44' W 095°07'0 0.0
2014-Aug-24 17:33N 29°44' W 095°07'0 0.0
2014-Aug-24 16:33N 29°44' W 095°07'0 0.0
2014-Aug-24 15:33N 29°44' W 095°07'0 0.0
2014-Aug-24 14:33N 29°44' W 095°07'0 0.0
2014-Aug-24 13:33N 29°44' W 095°07'0 0.0
2014-Aug-24 12:33N 29°44' W 095°07'0 0.0
2014-Aug-24 11:33N 29°44' W 095°07'0 0.0
2014-Aug-24 10:33N 29°44' W 095°07'0 0.0
2014-Aug-24 09:33N 29°44' W 095°07'0 0.0
2014-Aug-24 08:33N 29°44' W 095°07'0 0.0
2014-Aug-24 07:33N 29°44' W 095°07'0 0.0
2014-Aug-24 06:33N 29°44' W 095°07'0 0.0
2014-Aug-24 05:33N 29°44' W 095°07'0 0.0
2014-Aug-24 04:33N 29°44' W 095°07'0 0.0
2014-Aug-24 03:33N 29°44' W 095°07'0 0.0
2014-Aug-24 02:33N 29°44' W 095°07'0 0.0
2014-Aug-24 01:33N 29°44' W 095°07'0 0.0
2014-Aug-24 00:33N 29°44' W 095°07'0 0.0
2014-Aug-23 23:33N 29°44' W 095°07'0 0.0
2014-Aug-23 22:30N 29°44' W 095°07'0 0.0
2014-Aug-23 21:33N 29°44' W 095°07'0 0.0
2014-Aug-23 20:33N 29°44' W 095°07'0 0.0
2014-Aug-23 19:33N 29°44' W 095°07'0 0.0
2014-Aug-23 03:33N 29°44' W 095°07'0 0.0
2014-Aug-23 02:33N 29°44' W 095°07'0 0.0
2014-Aug-23 01:33N 29°44' W 095°07'0 0.0
2014-Aug-23 00:33N 29°44' W 095°07'0 0.0
2014-Aug-22 23:33N 29°44' W 095°07'0 0.0
2014-Aug-22 22:33N 29°44' W 095°07'5 4.9
2014-Aug-22 21:34N 29°44' W 095°02'1211.8
2014-Aug-22 20:33N 29°33' W 094°55'1414.3
2014-Aug-22 19:33N 29°21' W 094°47'18 1.6
2014-Aug-22 08:24N 29°06' W 094°36'  
Track history (hours):
 
Tides and Currents Weather Stations Pressure Air Temp Water Temp Dewpoint Dewpoint Depression Visibility Wind Speed Wind Dir Waves Ship Positions

Clipper Grand

Last reported at 2014-Aug-28 09:30 UTC. Time now 2014-Sep-18 23:48 UTC.
Position N 26°41' W 079°27'.
Warning: this ship's position is 21 days out of date.

Length 120 m; draft 7.2 m.

Type: Cargo ship. MMSI: 311033700.

Date/timePositionNaut miles runAvg speedWind from/ knotsBaromVisibWave heightAir tempDewpointWater temp
2014-Aug-28 09:30N 26°41' W 079°27'2613.4
2014-Aug-28 07:33N 26°15' W 079°28'1313.1
2014-Aug-28 06:33N 26°02' W 079°30'1413.1
2014-Aug-28 05:31N 25°49' W 079°32'  
2014-Aug-25 04:07N 29°19' W 094°38'711.5
2014-Aug-25 03:30N 29°21' W 094°46'1212.6
2014-Aug-25 02:33N 29°31' W 094°53'1211.6
2014-Aug-25 01:33N 29°41' W 094°59'7 6.8
2014-Aug-25 00:33N 29°46' W 095°05'2 2.1
2014-Aug-24 23:33N 29°44' W 095°07'0 0.0
2014-Aug-24 22:33N 29°44' W 095°07'0 0.0
2014-Aug-24 21:33N 29°44' W 095°07'0 0.0
2014-Aug-24 20:33N 29°44' W 095°07'0 0.0
2014-Aug-24 19:33N 29°44' W 095°07'0 0.0
2014-Aug-24 18:33N 29°44' W 095°07'0 0.0
2014-Aug-24 17:33N 29°44' W 095°07'0 0.0
2014-Aug-24 16:33N 29°44' W 095°07'0 0.0
2014-Aug-24 15:33N 29°44' W 095°07'0 0.0
2014-Aug-24 14:33N 29°44' W 095°07'0 0.0
2014-Aug-24 13:33N 29°44' W 095°07'0 0.0
2014-Aug-24 12:33N 29°44' W 095°07'0 0.0
2014-Aug-24 11:33N 29°44' W 095°07'0 0.0
2014-Aug-24 10:33N 29°44' W 095°07'0 0.0
2014-Aug-24 09:33N 29°44' W 095°07'0 0.0
2014-Aug-24 08:33N 29°44' W 095°07'0 0.0
2014-Aug-24 07:33N 29°44' W 095°07'0 0.0
2014-Aug-24 06:33N 29°44' W 095°07'0 0.0
2014-Aug-24 05:33N 29°44' W 095°07'0 0.0
2014-Aug-24 04:33N 29°44' W 095°07'0 0.0
2014-Aug-24 03:33N 29°44' W 095°07'0 0.0
2014-Aug-24 02:33N 29°44' W 095°07'0 0.0
2014-Aug-24 01:33N 29°44' W 095°07'0 0.0
2014-Aug-24 00:33N 29°44' W 095°07'0 0.0
2014-Aug-23 23:33N 29°44' W 095°07'0 0.0
2014-Aug-23 22:30N 29°44' W 095°07'0 0.0
2014-Aug-23 21:33N 29°44' W 095°07'0 0.0
2014-Aug-23 20:33N 29°44' W 095°07'0 0.0
2014-Aug-23 19:33N 29°44' W 095°07'0 0.0
2014-Aug-23 03:33N 29°44' W 095°07'0 0.0
2014-Aug-23 02:33N 29°44' W 095°07'0 0.0
2014-Aug-23 01:33N 29°44' W 095°07'0 0.0
2014-Aug-23 00:33N 29°44' W 095°07'0 0.0
2014-Aug-22 23:33N 29°44' W 095°07'0 0.0
2014-Aug-22 22:33N 29°44' W 095°07'5 4.9
2014-Aug-22 21:34N 29°44' W 095°02'1211.8
2014-Aug-22 20:33N 29°33' W 094°55'1414.3
2014-Aug-22 19:33N 29°21' W 094°47'18 1.6
2014-Aug-22 08:24N 29°06' W 094°36'  

Dump ship's entire track history